createdAt,value
2023-02-22T00:00:13.018Z,0.00
2023-02-22T00:01:12.990Z,0.00
2023-02-22T00:02:13.004Z,0.00
2023-02-22T00:03:12.996Z,0.00
2023-02-22T00:04:12.907Z,0.00
2023-02-22T00:05:12.858Z,0.00
2023-02-22T00:06:12.833Z,0.00
2023-02-22T00:07:12.809Z,0.00
2023-02-22T00:08:12.782Z,0.00
2023-02-22T00:09:12.761Z,0.00
2023-02-22T00:10:12.745Z,0.00
2023-02-22T00:11:12.715Z,0.00
2023-02-22T00:12:12.689Z,0.00
2023-02-22T00:13:12.650Z,0.00
2023-02-22T00:14:12.677Z,0.00
2023-02-22T00:15:12.617Z,0.00
2023-02-22T00:16:12.606Z,0.00
2023-02-22T00:17:12.547Z,0.00
2023-02-22T00:18:12.532Z,0.00
2023-02-22T00:19:12.507Z,0.00
2023-02-22T00:20:12.492Z,0.00
2023-02-22T00:21:12.443Z,0.00
2023-02-22T00:22:12.430Z,0.00
2023-02-22T00:23:12.384Z,0.00
2023-02-22T00:24:12.373Z,0.00
2023-02-22T00:25:12.348Z,0.00
2023-02-22T00:26:12.333Z,0.00
2023-02-22T00:27:12.291Z,0.00
2023-02-22T00:28:12.265Z,0.00
2023-02-22T00:29:12.238Z,0.00
2023-02-22T00:30:12.346Z,0.00
2023-02-22T00:31:12.210Z,0.00
2023-02-22T00:32:12.229Z,0.00
2023-02-22T00:33:12.128Z,0.00
2023-02-22T00:34:12.119Z,0.00
2023-02-22T00:35:12.169Z,0.00
2023-02-22T00:36:12.082Z,0.00
2023-02-22T00:37:12.042Z,0.00
2023-02-22T00:38:12.028Z,0.00
2023-02-22T00:39:11.974Z,0.00
2023-02-22T00:40:11.999Z,0.00
2023-02-22T00:41:11.930Z,0.00
2023-02-22T00:42:11.903Z,0.00
2023-02-22T00:43:11.874Z,0.00
2023-02-22T00:44:11.861Z,0.00
2023-02-22T00:45:11.822Z,0.00
2023-02-22T00:46:11.871Z,0.00
2023-02-22T00:47:11.768Z,0.00
2023-02-22T00:48:11.749Z,0.00
2023-02-22T00:49:11.717Z,0.00
2023-02-22T00:50:11.694Z,0.00
2023-02-22T00:51:11.662Z,0.00
2023-02-22T00:52:11.644Z,0.00
2023-02-22T00:53:11.623Z,0.00
2023-02-22T00:54:11.595Z,0.00
2023-02-22T00:55:11.609Z,0.00
2023-02-22T00:56:11.556Z,0.00
2023-02-22T00:57:11.568Z,0.00
2023-02-22T00:58:11.492Z,0.00
2023-02-22T00:59:11.459Z,0.00
2023-02-22T01:00:11.501Z,0.00
2023-02-22T01:01:11.466Z,0.00
2023-02-22T01:02:11.547Z,0.00
2023-02-22T01:03:11.376Z,0.00
2023-02-22T01:04:11.340Z,0.00
2023-02-22T01:05:11.358Z,0.00
2023-02-22T01:06:11.282Z,0.00
2023-02-22T01:07:11.252Z,0.00
2023-02-22T01:08:11.222Z,0.00
2023-02-22T01:09:11.200Z,0.00
2023-02-22T01:10:11.201Z,0.00
2023-02-22T01:11:11.154Z,0.00
2023-02-22T01:12:11.121Z,0.00
2023-02-22T01:13:11.095Z,0.00
2023-02-22T01:14:11.071Z,0.00
2023-02-22T01:15:11.039Z,0.00
2023-02-22T01:16:11.069Z,0.00
2023-02-22T01:17:10.988Z,0.00
2023-02-22T01:18:11.008Z,0.00
2023-02-22T01:19:10.950Z,0.00
2023-02-22T01:20:10.927Z,0.00
2023-02-22T01:21:10.908Z,0.00
2023-02-22T01:22:10.856Z,0.00
2023-02-22T01:23:10.837Z,0.00
2023-02-22T01:24:10.806Z,0.00
2023-02-22T01:25:10.803Z,0.00
2023-02-22T01:26:10.750Z,0.00
2023-02-22T01:27:10.740Z,0.00
2023-02-22T01:28:10.703Z,0.00
2023-02-22T01:29:10.680Z,0.00
2023-02-22T01:30:10.685Z,0.00
2023-02-22T01:31:10.672Z,0.00
2023-02-22T01:32:10.639Z,0.00
2023-02-22T01:33:10.576Z,0.00
2023-02-22T01:34:10.555Z,0.00
2023-02-22T01:35:10.567Z,0.00
2023-02-22T01:36:10.493Z,0.00
2023-02-22T01:37:10.488Z,0.00
2023-02-22T01:38:10.471Z,0.00
2023-02-22T01:39:10.429Z,0.00
2023-02-22T01:40:10.407Z,0.00
2023-02-22T01:41:10.448Z,0.00
2023-02-22T01:42:10.371Z,0.00
2023-02-22T01:43:10.364Z,0.00
2023-02-22T01:44:10.284Z,0.00
2023-02-22T01:45:10.268Z,0.00
2023-02-22T01:46:10.250Z,0.00
2023-02-22T01:47:10.211Z,0.00
2023-02-22T01:48:10.177Z,0.00
2023-02-22T01:49:10.152Z,0.00
2023-02-22T01:50:10.123Z,0.00
2023-02-22T01:51:10.100Z,0.00
2023-02-22T01:52:10.080Z,0.00
2023-02-22T01:53:10.046Z,0.00
2023-02-22T01:54:10.058Z,0.00
2023-02-22T01:55:09.993Z,0.00
2023-02-22T01:56:09.976Z,0.00
2023-02-22T01:57:09.963Z,0.00
2023-02-22T01:58:09.916Z,0.00
2023-02-22T01:59:09.896Z,0.00
2023-02-22T02:00:09.866Z,0.00
2023-02-22T02:01:09.836Z,0.00
2023-02-22T02:02:09.814Z,0.00
2023-02-22T02:03:09.816Z,0.00
2023-02-22T02:04:09.826Z,0.00
2023-02-22T02:05:09.829Z,0.00
2023-02-22T02:06:09.707Z,0.00
2023-02-22T02:07:09.681Z,0.00
2023-02-22T02:08:09.653Z,0.00
2023-02-22T02:09:09.629Z,0.00
2023-02-22T02:10:09.594Z,0.00
2023-02-22T02:11:09.583Z,0.00
2023-02-22T02:12:09.561Z,0.00
2023-02-22T02:13:09.527Z,0.00
2023-02-22T02:14:09.499Z,0.00
2023-02-22T02:15:09.476Z,0.00
2023-02-22T02:16:09.448Z,0.00
2023-02-22T02:17:09.461Z,0.00
2023-02-22T02:18:09.418Z,0.00
2023-02-22T02:19:09.389Z,0.00
2023-02-22T02:20:09.348Z,0.00
2023-02-22T02:21:09.323Z,0.00
2023-02-22T02:22:09.319Z,0.00
2023-02-22T02:23:09.274Z,0.00
2023-02-22T02:24:09.235Z,0.00
2023-02-22T02:25:09.226Z,0.00
2023-02-22T02:26:09.206Z,0.00
2023-02-22T02:27:09.191Z,0.00
2023-02-22T02:28:09.134Z,0.00
2023-02-22T02:29:09.111Z,0.00
2023-02-22T02:30:09.099Z,0.00
2023-02-22T02:31:09.061Z,0.00
2023-02-22T02:32:09.118Z,0.00
2023-02-22T02:33:09.004Z,0.00
2023-02-22T02:34:08.980Z,0.00
2023-02-22T02:35:08.965Z,0.00
2023-02-22T02:36:08.934Z,0.00
2023-02-22T02:37:08.908Z,0.00
2023-02-22T02:38:08.874Z,0.00
2023-02-22T02:39:08.875Z,0.00
2023-02-22T02:40:08.892Z,0.00
2023-02-22T02:41:08.806Z,0.00
2023-02-22T02:42:08.779Z,0.00
2023-02-22T02:43:08.753Z,0.00
2023-02-22T02:44:08.721Z,0.00
2023-02-22T02:45:08.694Z,0.00
2023-02-22T02:46:08.668Z,0.00
2023-02-22T02:47:08.713Z,0.00
2023-02-22T02:48:08.616Z,0.00
2023-02-22T02:49:08.616Z,0.00
2023-02-22T02:50:08.569Z,0.00
2023-02-22T02:51:08.552Z,0.00
2023-02-22T02:52:08.548Z,0.00
2023-02-22T02:53:08.486Z,0.00
2023-02-22T02:54:08.464Z,0.00
2023-02-22T02:55:08.434Z,0.00
2023-02-22T02:56:08.405Z,0.00
2023-02-22T02:57:08.388Z,0.00
2023-02-22T02:58:08.372Z,0.00
2023-02-22T02:59:08.336Z,0.00
2023-02-22T03:00:08.305Z,0.00
2023-02-22T03:01:08.273Z,0.00
2023-02-22T03:02:08.249Z,0.00
2023-02-22T03:03:08.232Z,0.00
2023-02-22T03:04:08.217Z,0.00
2023-02-22T03:05:08.178Z,0.00
2023-02-22T03:06:08.152Z,0.00
2023-02-22T03:07:08.135Z,0.00
2023-02-22T03:08:08.102Z,0.00
2023-02-22T03:09:08.067Z,0.00
2023-02-22T03:10:08.057Z,0.00
2023-02-22T03:11:08.018Z,0.00
2023-02-22T03:12:08.003Z,0.00
2023-02-22T03:13:07.969Z,0.00
2023-02-22T03:14:07.955Z,0.00
2023-02-22T03:15:07.919Z,0.00
2023-02-22T03:16:08.015Z,0.00
2023-02-22T03:17:07.859Z,0.00
2023-02-22T03:18:07.844Z,0.00
2023-02-22T03:19:07.815Z,0.00
2023-02-22T03:20:07.785Z,0.00
2023-02-22T03:21:07.796Z,0.00
2023-02-22T03:22:07.726Z,0.00
2023-02-22T03:23:07.714Z,0.00
2023-02-22T03:24:07.674Z,0.00
2023-02-22T03:25:07.694Z,0.00
2023-02-22T03:26:07.653Z,0.00
2023-02-22T03:27:07.629Z,0.00
2023-02-22T03:28:07.573Z,0.00
2023-02-22T03:29:07.579Z,0.00
2023-02-22T03:30:07.578Z,0.00
2023-02-22T03:31:07.551Z,0.00
2023-02-22T03:32:07.483Z,0.00
2023-02-22T03:33:07.494Z,0.00
2023-02-22T03:34:07.414Z,0.00
2023-02-22T03:35:07.420Z,0.00
2023-02-22T03:36:07.364Z,0.00
2023-02-22T03:37:07.340Z,0.00
2023-02-22T03:38:07.317Z,0.00
2023-02-22T03:39:07.287Z,0.00
2023-02-22T03:40:07.255Z,0.00
2023-02-22T03:41:07.230Z,0.00
2023-02-22T03:42:07.212Z,0.00
2023-02-22T03:43:07.201Z,0.00
2023-02-22T03:44:07.165Z,0.00
2023-02-22T03:45:07.135Z,0.00
2023-02-22T03:46:07.185Z,0.00
2023-02-22T03:47:07.084Z,0.00
2023-02-22T03:48:07.063Z,0.00
2023-02-22T03:49:07.041Z,0.00
2023-02-22T03:50:07.010Z,0.00
2023-02-22T03:51:06.977Z,0.00
2023-02-22T03:52:06.959Z,0.00
2023-02-22T03:53:06.922Z,0.00
2023-02-22T03:54:06.910Z,0.00
2023-02-22T03:55:06.885Z,0.00
2023-02-22T03:56:06.846Z,0.00
2023-02-22T03:57:06.863Z,0.00
2023-02-22T03:58:06.789Z,0.00
2023-02-22T03:59:06.770Z,0.00
2023-02-22T04:00:06.773Z,0.00
2023-02-22T04:01:06.731Z,0.00
2023-02-22T04:02:06.734Z,0.00
2023-02-22T04:03:06.736Z,0.00
2023-02-22T04:04:06.635Z,0.00
2023-02-22T04:05:06.620Z,0.00
2023-02-22T04:06:06.584Z,0.00
2023-02-22T04:07:06.556Z,0.00
2023-02-22T04:08:06.561Z,0.00
2023-02-22T04:09:06.528Z,0.00
2023-02-22T04:10:06.477Z,0.00
2023-02-22T04:11:06.464Z,0.00
2023-02-22T04:12:06.467Z,0.00
2023-02-22T04:13:06.408Z,0.00
2023-02-22T04:14:06.375Z,0.00
2023-02-22T04:15:06.363Z,0.00
2023-02-22T04:16:06.430Z,0.00
2023-02-22T04:17:06.327Z,0.00
2023-02-22T04:18:06.269Z,0.00
2023-02-22T04:19:06.256Z,0.00
2023-02-22T04:20:06.231Z,0.00
2023-02-22T04:21:06.195Z,0.00
2023-02-22T04:22:06.177Z,0.00
2023-02-22T04:23:06.141Z,0.00
2023-02-22T04:24:06.114Z,0.00
2023-02-22T04:25:06.088Z,0.00
2023-02-22T04:26:06.062Z,0.00
2023-02-22T04:27:06.052Z,0.00
2023-02-22T04:28:06.014Z,0.00
2023-02-22T04:29:05.985Z,0.00
2023-02-22T04:30:06.030Z,0.00
2023-02-22T04:31:05.942Z,0.00
2023-02-22T04:32:05.972Z,0.00
2023-02-22T04:33:05.878Z,0.00
2023-02-22T04:34:05.863Z,0.00
2023-02-22T04:35:05.838Z,0.00
2023-02-22T04:36:05.813Z,0.00
2023-02-22T04:37:05.784Z,0.00
2023-02-22T04:38:05.744Z,0.00
2023-02-22T04:39:05.726Z,0.00
2023-02-22T04:40:05.696Z,0.00
2023-02-22T04:41:05.670Z,0.00
2023-02-22T04:42:05.643Z,0.00
2023-02-22T04:43:05.617Z,0.00
2023-02-22T04:44:05.603Z,0.00
2023-02-22T04:45:05.574Z,0.00
2023-02-22T04:46:05.582Z,0.00
2023-02-22T04:47:05.522Z,0.00
2023-02-22T04:48:05.499Z,0.00
2023-02-22T04:49:05.492Z,0.00
2023-02-22T04:50:05.435Z,0.00
2023-02-22T04:51:05.421Z,0.00
2023-02-22T04:52:05.391Z,0.00
2023-02-22T04:53:05.371Z,0.00
2023-02-22T04:54:05.370Z,0.00
2023-02-22T04:55:05.306Z,0.00
2023-02-22T04:56:05.281Z,0.00
2023-02-22T04:57:05.247Z,0.00
2023-02-22T04:58:05.230Z,0.00
2023-02-22T04:59:05.227Z,0.00
2023-02-22T05:00:05.194Z,0.00
2023-02-22T05:01:05.147Z,0.00
2023-02-22T05:02:05.114Z,0.00
2023-02-22T05:03:05.091Z,0.00
2023-02-22T05:04:05.096Z,0.00
2023-02-22T05:05:05.088Z,0.00
2023-02-22T05:06:05.010Z,0.00
2023-02-22T05:07:04.986Z,0.00
2023-02-22T05:08:04.991Z,0.00
2023-02-22T05:09:04.931Z,0.00
2023-02-22T05:10:04.910Z,0.00
2023-02-22T05:11:04.877Z,0.00
2023-02-22T05:12:04.853Z,0.00
2023-02-22T05:13:04.917Z,0.00
2023-02-22T05:14:04.808Z,0.00
2023-02-22T05:15:04.779Z,0.00
2023-02-22T05:16:04.781Z,0.00
2023-02-22T05:17:04.721Z,0.00
2023-02-22T05:18:04.734Z,0.00
2023-02-22T05:19:04.665Z,0.00
2023-02-22T05:20:04.648Z,0.00
2023-02-22T05:21:04.619Z,0.00
2023-02-22T05:22:04.594Z,0.00
2023-02-22T05:23:04.554Z,0.00
2023-02-22T05:24:04.537Z,0.00
2023-02-22T05:25:04.530Z,0.00
2023-02-22T05:26:04.499Z,0.00
2023-02-22T05:27:04.472Z,0.00
2023-02-22T05:28:04.434Z,0.00
2023-02-22T05:29:04.396Z,0.00
2023-02-22T05:30:04.384Z,0.00
2023-02-22T05:31:04.387Z,0.00
2023-02-22T05:32:04.505Z,0.00
2023-02-22T05:33:04.297Z,0.00
2023-02-22T05:34:04.289Z,0.00
2023-02-22T05:35:04.282Z,0.00
2023-02-22T05:36:04.238Z,0.00
2023-02-22T05:37:04.186Z,0.00
2023-02-22T05:38:04.204Z,0.00
2023-02-22T05:39:04.138Z,0.00
2023-02-22T05:40:04.125Z,0.00
2023-02-22T05:41:04.099Z,0.00
2023-02-22T05:42:04.063Z,0.00
2023-02-22T05:43:04.052Z,0.00
2023-02-22T05:44:04.027Z,0.00
2023-02-22T05:45:03.981Z,0.00
2023-02-22T05:46:03.962Z,0.00
2023-02-22T05:47:03.949Z,0.00
2023-02-22T05:48:03.906Z,0.00
2023-02-22T05:49:03.868Z,0.00
2023-02-22T05:50:03.851Z,0.00
2023-02-22T05:51:03.819Z,0.00
2023-02-22T05:52:03.810Z,0.00
2023-02-22T05:53:03.776Z,0.00
2023-02-22T05:54:03.766Z,0.00
2023-02-22T05:55:03.776Z,0.00
2023-02-22T05:56:03.697Z,0.00
2023-02-22T05:57:03.656Z,0.00
2023-02-22T05:58:03.636Z,0.00
2023-02-22T05:59:03.615Z,0.00
2023-02-22T06:00:03.586Z,0.00
2023-02-22T06:01:03.658Z,0.00
2023-02-22T06:02:03.600Z,0.00
2023-02-22T06:03:03.501Z,0.00
2023-02-22T06:04:03.489Z,0.00
2023-02-22T06:05:03.452Z,0.00
2023-02-22T06:06:03.444Z,0.00
2023-02-22T06:07:03.408Z,0.00
2023-02-22T06:08:03.372Z,0.00
2023-02-22T06:09:03.357Z,0.00
2023-02-22T06:10:03.316Z,0.00
2023-02-22T06:11:03.286Z,0.00
2023-02-22T06:12:03.280Z,0.00
2023-02-22T06:13:03.233Z,0.00
2023-02-22T06:14:03.213Z,0.00
2023-02-22T06:15:03.189Z,0.00
2023-02-22T06:16:03.184Z,5.63
2023-02-22T06:17:03.132Z,5.63
2023-02-22T06:18:03.113Z,5.63
2023-02-22T06:19:03.088Z,5.63
2023-02-22T06:20:03.054Z,5.63
2023-02-22T06:21:03.031Z,5.63
2023-02-22T06:22:03.004Z,5.63
2023-02-22T06:23:02.970Z,5.63
2023-02-22T06:24:02.951Z,5.63
2023-02-22T06:25:02.913Z,5.63
2023-02-22T06:26:02.893Z,5.63
2023-02-22T06:27:02.865Z,11.25
2023-02-22T06:28:02.851Z,11.25
2023-02-22T06:29:02.817Z,11.25
2023-02-22T06:30:02.796Z,11.25
2023-02-22T06:31:02.838Z,16.88
2023-02-22T06:32:02.826Z,16.88
2023-02-22T06:33:02.710Z,16.88
2023-02-22T06:34:02.690Z,16.88
2023-02-22T06:35:02.684Z,22.50
2023-02-22T06:36:02.650Z,22.50
2023-02-22T06:37:02.604Z,22.50
2023-02-22T06:38:02.710Z,22.50
2023-02-22T06:39:02.553Z,28.13
2023-02-22T06:40:05.557Z,28.13
2023-02-22T06:41:02.498Z,28.13
2023-02-22T06:42:02.500Z,33.75
2023-02-22T06:43:02.442Z,33.75
2023-02-22T06:44:02.430Z,39.38
2023-02-22T06:45:02.400Z,39.38
2023-02-22T06:46:02.396Z,39.38
2023-02-22T06:47:02.344Z,45.00
2023-02-22T06:48:02.316Z,45.00
2023-02-22T06:49:02.287Z,50.63
2023-02-22T06:50:02.267Z,50.63
2023-02-22T06:51:02.238Z,50.63
2023-02-22T06:52:02.224Z,56.25
2023-02-22T06:53:02.187Z,56.25
2023-02-22T06:54:02.178Z,61.88
2023-02-22T06:55:02.191Z,61.88
2023-02-22T06:56:02.125Z,67.50
2023-02-22T06:57:02.085Z,67.50
2023-02-22T06:58:02.058Z,73.13
2023-02-22T06:59:02.872Z,73.13
2023-02-22T07:00:02.014Z,78.75
2023-02-22T07:01:02.035Z,78.75
2023-02-22T07:02:01.963Z,84.38
2023-02-22T07:03:02.044Z,84.38
2023-02-22T07:04:01.897Z,84.38
2023-02-22T07:05:01.881Z,90.00
2023-02-22T07:06:01.855Z,90.00
2023-02-22T07:07:01.842Z,90.00
2023-02-22T07:08:01.806Z,95.63
2023-02-22T07:09:01.773Z,95.63
2023-02-22T07:10:01.754Z,101.25
2023-02-22T07:11:01.739Z,101.25
2023-02-22T07:12:01.720Z,106.88
2023-02-22T07:13:01.707Z,106.88
2023-02-22T07:14:01.648Z,112.50
2023-02-22T07:15:01.620Z,112.50
2023-02-22T07:16:01.614Z,118.13
2023-02-22T07:17:01.598Z,118.13
2023-02-22T07:18:01.548Z,123.75
2023-02-22T07:19:01.520Z,123.75
2023-02-22T07:20:01.533Z,123.75
2023-02-22T07:21:01.480Z,129.38
2023-02-22T07:22:01.444Z,129.38
2023-02-22T07:23:01.470Z,135.00
2023-02-22T07:24:01.391Z,135.00
2023-02-22T07:25:01.364Z,135.00
2023-02-22T07:26:01.385Z,140.63
2023-02-22T07:27:01.376Z,140.63
2023-02-22T07:28:01.304Z,140.63
2023-02-22T07:29:01.269Z,146.25
2023-02-22T07:30:01.239Z,146.25
2023-02-22T07:31:01.213Z,151.88
2023-02-22T07:32:01.227Z,157.50
2023-02-22T07:33:01.248Z,157.50
2023-02-22T07:34:01.151Z,163.13
2023-02-22T07:35:01.132Z,163.13
2023-02-22T07:36:01.156Z,168.75
2023-02-22T07:37:01.059Z,174.38
2023-02-22T07:38:01.044Z,180.00
2023-02-22T07:39:01.137Z,180.00
2023-02-22T07:40:00.993Z,180.00
2023-02-22T07:41:01.017Z,185.63
2023-02-22T07:42:01.009Z,191.25
2023-02-22T07:43:00.918Z,196.88
2023-02-22T07:44:00.889Z,196.88
2023-02-22T07:45:00.863Z,202.50
2023-02-22T07:46:00.922Z,202.50
2023-02-22T07:47:00.807Z,208.13
2023-02-22T07:48:00.790Z,213.75
2023-02-22T07:49:00.753Z,213.75
2023-02-22T07:50:00.737Z,213.75
2023-02-22T07:51:00.737Z,225.00
2023-02-22T07:52:00.683Z,230.63
2023-02-22T07:53:00.687Z,230.63
2023-02-22T07:54:00.768Z,225.00
2023-02-22T07:55:00.615Z,230.63
2023-02-22T07:56:00.596Z,230.63
2023-02-22T07:57:00.571Z,230.63
2023-02-22T07:58:00.576Z,230.63
2023-02-22T07:59:00.513Z,230.63
2023-02-22T08:00:00.489Z,230.63
2023-02-22T08:01:00.484Z,225.00
2023-02-22T08:02:00.441Z,225.00
2023-02-22T08:03:00.455Z,225.00
2023-02-22T08:04:00.458Z,225.00
2023-02-22T08:05:00.367Z,230.63
2023-02-22T08:06:00.383Z,230.63
2023-02-22T08:07:00.318Z,230.63
2023-02-22T08:08:00.314Z,230.63
2023-02-22T08:09:00.277Z,236.25
2023-02-22T08:10:00.251Z,230.63
2023-02-22T08:11:00.247Z,230.63
2023-02-22T08:12:00.208Z,230.63
2023-02-22T08:13:00.214Z,236.25
2023-02-22T08:14:00.177Z,236.25
2023-02-22T08:15:00.136Z,236.25
2023-02-22T08:16:00.112Z,241.88
2023-02-22T08:17:00.136Z,241.88
2023-02-22T08:18:00.079Z,247.50
2023-02-22T08:19:00.071Z,258.75
2023-02-22T08:20:00.015Z,258.75
2023-02-22T08:20:59.979Z,258.75
2023-02-22T08:21:59.996Z,258.75
2023-02-22T08:22:59.953Z,258.75
2023-02-22T08:23:59.919Z,264.38
2023-02-22T08:24:59.899Z,264.38
2023-02-22T08:25:59.877Z,258.75
2023-02-22T08:26:59.845Z,258.75
2023-02-22T08:27:59.830Z,258.75
2023-02-22T08:28:59.819Z,258.75
2023-02-22T08:29:59.782Z,258.75
2023-02-22T08:30:59.789Z,258.75
2023-02-22T08:31:59.928Z,253.13
2023-02-22T08:32:59.832Z,264.38
2023-02-22T08:33:59.701Z,253.13
2023-02-22T08:34:59.662Z,258.75
2023-02-22T08:35:59.650Z,253.13
2023-02-22T08:36:59.616Z,253.13
2023-02-22T08:37:59.603Z,247.50
2023-02-22T08:38:59.594Z,247.50
2023-02-22T08:39:59.562Z,247.50
2023-02-22T08:40:59.532Z,247.50
2023-02-22T08:41:59.515Z,247.50
2023-02-22T08:42:59.498Z,253.13
2023-02-22T08:43:59.461Z,253.13
2023-02-22T08:44:59.448Z,258.75
2023-02-22T08:45:59.436Z,264.38
2023-02-22T08:46:59.428Z,264.38
2023-02-22T08:47:59.388Z,264.38
2023-02-22T08:48:59.343Z,264.38
2023-02-22T08:49:59.331Z,264.38
2023-02-22T08:50:59.294Z,264.38
2023-02-22T08:51:59.279Z,264.38
2023-02-22T08:52:59.308Z,270.00
2023-02-22T08:53:59.248Z,258.75
2023-02-22T08:54:59.217Z,258.75
2023-02-22T08:55:59.190Z,258.75
2023-02-22T08:56:59.166Z,258.75
2023-02-22T08:57:59.166Z,253.13
2023-02-22T08:58:59.161Z,258.75
2023-02-22T08:59:59.101Z,258.75
2023-02-22T09:00:59.078Z,253.13
2023-02-22T09:01:59.156Z,253.13
2023-02-22T09:02:59.049Z,258.75
2023-02-22T09:03:59.078Z,264.38
2023-02-22T09:04:58.993Z,264.38
2023-02-22T09:05:59.022Z,258.75
2023-02-22T09:06:58.953Z,264.38
2023-02-22T09:07:58.926Z,270.00
2023-02-22T09:08:58.915Z,270.00
2023-02-22T09:09:58.894Z,275.63
2023-02-22T09:10:58.881Z,275.63
2023-02-22T09:11:58.836Z,281.25
2023-02-22T09:12:58.809Z,281.25
2023-02-22T09:13:58.798Z,275.63
2023-02-22T09:14:58.778Z,275.63
2023-02-22T09:15:58.830Z,275.63
2023-02-22T09:16:58.752Z,270.00
2023-02-22T09:17:58.724Z,281.25
2023-02-22T09:18:58.680Z,281.25
2023-02-22T09:19:58.708Z,292.50
2023-02-22T09:20:58.643Z,292.50
2023-02-22T09:21:58.617Z,298.13
2023-02-22T09:22:58.590Z,298.13
2023-02-22T09:23:58.574Z,303.75
2023-02-22T09:25:00.307Z,303.75
2023-02-22T09:25:58.533Z,320.63
2023-02-22T09:26:58.504Z,337.50
2023-02-22T09:27:58.481Z,331.88
2023-02-22T09:28:58.464Z,343.13
2023-02-22T09:29:58.440Z,354.38
2023-02-22T09:30:58.418Z,354.38
2023-02-22T09:31:58.585Z,360.00
2023-02-22T09:32:58.462Z,360.00
2023-02-22T09:33:58.482Z,360.00
2023-02-22T09:34:58.332Z,360.00
2023-02-22T09:35:58.299Z,360.00
2023-02-22T09:36:58.288Z,354.38
2023-02-22T09:37:58.291Z,337.50
2023-02-22T09:38:58.241Z,337.50
2023-02-22T09:39:58.259Z,337.50
2023-02-22T09:40:58.194Z,331.88
2023-02-22T09:41:58.168Z,326.25
2023-02-22T09:42:58.155Z,320.63
2023-02-22T09:43:58.125Z,315.00
2023-02-22T09:44:58.108Z,320.63
2023-02-22T09:45:58.116Z,320.63
2023-02-22T09:46:58.081Z,320.63
2023-02-22T09:48:01.308Z,320.63
2023-02-22T09:48:58.133Z,320.63
2023-02-22T09:49:58.009Z,315.00
2023-02-22T09:50:58.000Z,315.00
2023-02-22T09:51:57.984Z,326.25
2023-02-22T09:52:57.947Z,326.25
2023-02-22T09:53:57.941Z,331.88
2023-02-22T09:54:57.908Z,360.00
2023-02-22T09:55:57.881Z,354.38
2023-02-22T09:56:57.875Z,354.38
2023-02-22T09:57:57.845Z,354.38
2023-02-22T09:58:57.821Z,360.00
2023-02-22T09:59:57.846Z,365.63
2023-02-22T10:00:57.779Z,360.00
2023-02-22T10:01:57.761Z,360.00
2023-02-22T10:02:57.769Z,371.25
2023-02-22T10:03:57.786Z,376.88
2023-02-22T10:04:57.709Z,371.25
2023-02-22T10:05:57.718Z,371.25
2023-02-22T10:06:57.690Z,382.50
2023-02-22T10:07:57.697Z,393.75
2023-02-22T10:08:57.629Z,405.00
2023-02-22T10:09:57.613Z,410.63
2023-02-22T10:10:57.582Z,410.63
2023-02-22T10:11:57.614Z,416.25
2023-02-22T10:12:57.582Z,421.88
2023-02-22T10:13:57.520Z,427.50
2023-02-22T10:14:57.537Z,433.13
2023-02-22T10:15:57.492Z,433.13
2023-02-22T10:16:57.478Z,444.38
2023-02-22T10:17:57.451Z,450.00
2023-02-22T10:18:57.425Z,450.00
2023-02-22T10:19:57.417Z,450.00
2023-02-22T10:20:57.399Z,455.63
2023-02-22T10:21:57.496Z,478.13
2023-02-22T10:22:57.356Z,495.00
2023-02-22T10:23:57.366Z,506.25
2023-02-22T10:24:57.329Z,523.13
2023-02-22T10:25:57.316Z,540.00
2023-02-22T10:26:57.294Z,545.63
2023-02-22T10:27:57.286Z,545.63
2023-02-22T10:28:57.337Z,551.25
2023-02-22T10:29:57.229Z,556.88
2023-02-22T10:30:57.325Z,568.13
2023-02-22T10:31:57.331Z,579.38
2023-02-22T10:32:57.225Z,585.00
2023-02-22T10:33:57.170Z,545.63
2023-02-22T10:34:57.160Z,590.63
2023-02-22T10:35:57.161Z,613.13
2023-02-22T10:36:57.115Z,607.50
2023-02-22T10:37:57.241Z,624.38
2023-02-22T10:38:57.092Z,601.88
2023-02-22T10:39:57.080Z,613.13
2023-02-22T10:40:57.056Z,618.75
2023-02-22T10:41:57.064Z,607.50
2023-02-22T10:42:57.047Z,607.50
2023-02-22T10:43:57.017Z,590.63
2023-02-22T10:44:56.989Z,556.88
2023-02-22T10:45:56.981Z,562.50
2023-02-22T10:46:56.938Z,568.13
2023-02-22T10:47:56.917Z,568.13
2023-02-22T10:48:56.919Z,562.50
2023-02-22T10:49:56.894Z,528.75
2023-02-22T10:50:56.880Z,528.75
2023-02-22T10:51:56.872Z,590.63
2023-02-22T10:52:56.877Z,590.63
2023-02-22T10:53:56.848Z,601.88
2023-02-22T10:55:01.041Z,596.25
2023-02-22T10:55:56.801Z,601.88
2023-02-22T10:56:56.776Z,596.25
2023-02-22T10:57:56.751Z,573.75
2023-02-22T10:58:56.746Z,556.88
2023-02-22T10:59:56.718Z,562.50
2023-02-22T11:00:56.708Z,551.25
2023-02-22T11:01:56.681Z,534.38
2023-02-22T11:02:56.704Z,528.75
2023-02-22T11:03:56.653Z,528.75
2023-02-22T11:04:56.743Z,540.00
2023-02-22T11:05:56.617Z,551.25
2023-02-22T11:06:56.612Z,551.25
2023-02-22T11:07:56.579Z,523.13
2023-02-22T11:08:56.567Z,540.00
2023-02-22T11:09:56.548Z,568.13
2023-02-22T11:10:56.553Z,568.13
2023-02-22T11:11:58.311Z,568.13
2023-02-22T11:12:56.503Z,556.88
2023-02-22T11:13:56.474Z,556.88
2023-02-22T11:14:56.465Z,556.88
2023-02-22T11:15:56.453Z,556.88
2023-02-22T11:16:56.453Z,556.88
2023-02-22T11:17:56.418Z,556.88
2023-02-22T11:18:56.415Z,562.50
2023-02-22T11:19:56.376Z,562.50
2023-02-22T11:20:56.401Z,568.13
2023-02-22T11:21:56.343Z,573.75
2023-02-22T11:22:56.371Z,585.00
2023-02-22T11:23:56.316Z,585.00
2023-02-22T11:24:56.301Z,596.25
2023-02-22T11:25:56.285Z,613.13
2023-02-22T11:26:56.268Z,618.75
2023-02-22T11:27:56.243Z,624.38
2023-02-22T11:28:56.301Z,630.00
2023-02-22T11:29:56.237Z,618.75
2023-02-22T11:30:56.272Z,641.25
2023-02-22T11:31:56.351Z,658.13
2023-02-22T11:32:56.210Z,675.00
2023-02-22T11:34:17.154Z,686.25
2023-02-22T11:35:08.338Z,697.50
2023-02-22T11:35:56.129Z,697.50
2023-02-22T11:36:56.107Z,742.50
2023-02-22T11:37:56.078Z,759.38
2023-02-22T11:38:56.085Z,765.00
2023-02-22T11:39:56.043Z,770.63
2023-02-22T11:40:56.018Z,787.50
2023-02-22T11:41:56.038Z,787.50
2023-02-22T11:42:55.991Z,776.25
2023-02-22T11:43:55.982Z,787.50
2023-02-22T11:44:55.955Z,787.50
2023-02-22T11:45:58.960Z,798.75
2023-02-22T11:46:55.935Z,804.38
2023-02-22T11:47:55.916Z,798.75
2023-02-22T11:48:55.896Z,815.63
2023-02-22T11:49:55.883Z,832.50
2023-02-22T11:50:55.863Z,826.88
2023-02-22T11:51:55.870Z,838.13
2023-02-22T11:52:55.841Z,838.13
2023-02-22T11:53:55.855Z,843.75
2023-02-22T11:54:55.815Z,860.63
2023-02-22T11:55:55.798Z,849.38
2023-02-22T11:56:55.777Z,838.13
2023-02-22T11:57:55.778Z,832.50
2023-02-22T11:58:55.773Z,838.13
2023-02-22T11:59:55.744Z,810.00
2023-02-22T12:00:55.719Z,787.50
2023-02-22T12:01:55.724Z,815.63
2023-02-22T12:02:57.366Z,821.25
2023-02-22T12:03:55.737Z,810.00
2023-02-22T12:04:55.748Z,781.88
2023-02-22T12:05:55.655Z,765.00
2023-02-22T12:06:55.635Z,776.25
2023-02-22T12:07:55.632Z,776.25
2023-02-22T12:08:55.598Z,765.00
2023-02-22T12:09:55.599Z,759.38
2023-02-22T12:10:55.601Z,742.50
2023-02-22T12:11:55.564Z,742.50
2023-02-22T12:12:55.570Z,753.75
2023-02-22T12:13:55.543Z,759.38
2023-02-22T12:14:55.578Z,770.63
2023-02-22T12:15:55.559Z,787.50
2023-02-22T12:16:55.489Z,793.13
2023-02-22T12:18:00.064Z,793.13
2023-02-22T12:18:55.468Z,781.88
2023-02-22T12:19:55.453Z,765.00
2023-02-22T12:20:56.661Z,770.63
2023-02-22T12:21:55.424Z,765.00
2023-02-22T12:22:55.431Z,765.00
2023-02-22T12:23:55.396Z,742.50
2023-02-22T12:25:04.087Z,731.25
2023-02-22T12:25:55.368Z,736.88
2023-02-22T12:26:55.358Z,736.88
2023-02-22T12:27:55.355Z,770.63
2023-02-22T12:28:55.374Z,804.38
2023-02-22T12:29:55.363Z,798.75
2023-02-22T12:30:55.313Z,793.13
2023-02-22T12:31:55.355Z,798.75
2023-02-22T12:32:55.335Z,810.00
2023-02-22T12:33:55.277Z,798.75
2023-02-22T12:34:55.245Z,793.13
2023-02-22T12:35:55.232Z,770.63
2023-02-22T12:36:55.226Z,753.75
2023-02-22T12:37:55.200Z,742.50
2023-02-22T12:38:55.225Z,736.88
2023-02-22T12:39:55.199Z,736.88
2023-02-22T12:40:55.155Z,759.38
2023-02-22T12:41:55.146Z,781.88
2023-02-22T12:42:55.137Z,793.13
2023-02-22T12:43:55.117Z,793.13
2023-02-22T12:44:55.099Z,810.00
2023-02-22T12:45:55.115Z,810.00
2023-02-22T12:46:55.119Z,787.50
2023-02-22T12:47:55.070Z,776.25
2023-02-22T12:48:55.055Z,776.25
2023-02-22T12:49:55.036Z,770.63
2023-02-22T12:50:55.014Z,787.50
2023-02-22T12:51:55.038Z,781.88
2023-02-22T12:52:54.989Z,793.13
2023-02-22T12:53:54.982Z,804.38